Latest Weather Observations for Mornington Island Airport

IDQ60801

Issued at 8:05 am EST Monday 24 November 2014 (issued every 30 minutes, with the page automatically refreshed every 10 minutes)

About weather observations | Map of weather stations | Latest weather observations for QLD | Other Formats
Station Details ID: 029182 Name: MORNINGTON ISLAND AIRPORT Lat: -16.66 Lon: 139.17 Height: 9.0 m
Data from the previous 72 hours. | See also: Recent months at Mornington Island Airport
Date/Time
EST
Temp
°C
App
Temp
°C
Dew
Point
Rel
Hum
%
Delta-T
°C
Wind Press
QNH
hPa
Press
MSL
hPa
Rain
since 9 am
mm
Dir
 
Spd
km/h
Gust
km/h
Spd
kts
Gust
kts
24/08:00am 24.6 27.6 22.7 89 1.3 NNE 11 17 6 9 1011.7 1011.6 10.4
24/07:30am 24.5 24.0 22.2 87 1.5 ENE 28 44 15 24 1012.4 1012.3 2.4
24/07:25am 24.7 22.5 22.2 86 1.7 E 37 56 20 30 1012.4 1012.3 0.2
24/07:15am 26.3 22.8 21.1 73 3.4 ENE 41 50 22 27 1011.3 1011.2 0.0
24/07:00am 29.0 33.1 24.6 77 3.1 ENE 11 15 6 8 1010.7 1010.6 0.0
24/06:30am 28.8 33.3 24.6 78 2.9 NNE 9 15 5 8 1009.9 1009.8 0.0
24/06:00am 28.7 31.6 24.5 78 2.9 NE 17 24 9 13 1009.8 1009.7 0.0
24/05:30am 29.2 32.9 24.5 76 3.3 W 13 17 7 9 1008.5 1008.4 0.0
24/05:00am 29.2 32.5 24.5 76 3.3 WNW 15 20 8 11 1008.1 1008.0 0.0
24/04:30am 29.1 32.0 24.4 76 3.3 WNW 17 20 9 11 1007.5 1007.4 0.0
24/04:00am 29.1 31.8 24.2 75 3.4 WNW 17 20 9 11 1007.1 1007.0 0.0
24/03:30am 29.1 32.0 24.4 76 3.3 WNW 17 20 9 11 1007.4 1007.3 0.0
24/03:00am 29.1 32.2 24.2 75 3.4 NW 15 19 8 10 1007.6 1007.5 0.0
24/02:30am 29.2 31.8 23.9 73 3.7 NW 17 20 9 11 1008.0 1007.9 0.0
24/02:00am 29.4 31.6 24.0 72 3.7 NW 19 22 10 12 1008.4 1008.3 0.0
24/01:30am 29.4 31.4 23.6 71 4.0 NW 19 22 10 12 1008.6 1008.5 0.0
24/01:00am 29.5 31.5 23.9 72 3.9 NW 20 24 11 13 1009.2 1009.1 0.0
24/12:30am 29.7 31.9 24.3 73 3.8 NW 20 24 11 13 1009.7 1009.6 0.0
24/12:00am 29.7 32.1 24.3 73 3.8 WNW 19 22 10 12 1010.2 1010.1 0.0
 
Date/Time
EST
Temp
°C
App
Temp
°C
Dew
Point
Rel
Hum
%
Delta-T
°C
Wind Press
QNH
hPa
Press
MSL
hPa
Rain
since 9 am
mm
Dir
 
Spd
km/h
Gust
km/h
Spd
kts
Gust
kts
23/11:30pm 29.8 31.6 24.2 72 3.9 WNW 22 28 12 15 1010.1 1010.0 0.0
23/11:00pm 29.9 31.6 24.1 71 4.0 WNW 22 28 12 15 1010.2 1010.1 0.0
23/10:30pm 29.8 31.9 23.7 70 4.2 WNW 19 24 10 13 1010.6 1010.5 0.0
23/10:00pm 29.8 32.0 24.2 72 3.9 WNW 20 28 11 15 1010.4 1010.3 0.0
23/09:30pm 29.7 31.9 23.9 71 4.0 WNW 19 22 10 12 1010.3 1010.2 0.0
23/09:00pm 29.7 32.6 23.9 71 4.0 NW 15 20 8 11 1010.6 1010.5 0.0
23/08:30pm 29.8 31.9 23.7 70 4.2 NW 19 24 10 13 1010.2 1010.1 0.0
23/08:00pm 29.9 32.0 24.1 71 4.0 NNW 20 26 11 14 1009.4 1009.3 0.0
23/07:30pm 29.8 32.2 23.7 70 4.2 NNW 17 20 9 11 1009.1 1009.0 0.0
23/07:00pm 30.1 32.6 23.8 69 4.4 NNW 17 20 9 11 1009.8 1009.7 0.0
23/06:30pm 30.2 32.4 23.9 69 4.4 NNW 19 26 10 14 1009.1 1009.0 0.0
23/06:00pm 30.5 32.6 23.7 67 4.7 NNW 19 24 10 13 1008.9 1008.8 0.0
23/05:30pm 30.5 32.7 23.9 68 4.6 NNW 19 24 10 13 1009.0 1008.9 0.0
23/05:00pm 30.7 32.8 24.1 68 4.6 NNW 20 28 11 15 1008.2 1008.1 0.0
23/04:30pm 30.7 33.0 24.4 69 4.4 NNW 20 26 11 14 1008.7 1008.6 0.0
23/04:00pm 31.0 33.2 23.9 66 4.9 NNW 19 24 10 13 1008.9 1008.8 0.0
23/03:30pm 31.5 33.6 24.1 65 5.2 NNW 20 24 11 13 1009.3 1009.2 0.0
23/03:00pm 31.7 33.3 23.8 63 5.5 NNW 22 30 12 16 1009.4 1009.3 0.0
23/02:30pm 31.4 33.6 24.3 66 5.0 N 20 28 11 15 1009.9 1009.8 0.0
23/02:00pm 32.9 32.9 23.0 56 6.8 NNW 28 35 15 19 1010.2 1010.1 0.0
23/01:30pm 33.1 33.3 23.4 56 6.7 NNW 28 33 15 18 1010.6 1010.5 0.0
23/01:00pm 32.9 34.1 23.2 56 6.7 NNW 22 32 12 17 1011.0 1010.9 0.0
23/12:30pm 32.5 33.7 23.2 58 6.4 NNW 22 30 12 16 1011.5 1011.4 0.0
23/12:00pm 33.0 33.3 21.5 50 7.8 N 22 30 12 16 1011.7 1011.6 0.0
23/11:30am 33.1 33.9 23.1 55 6.9 NNW 24 32 13 17 1011.9 1011.8 0.0
23/11:00am 32.7 32.0 19.6 46 8.6 N 22 32 12 17 1012.1 1012.0 0.0
23/10:30am 32.8 31.4 18.9 43 9.1 N 24 35 13 19 1012.2 1012.1 0.0
23/10:00am 30.4 30.1 19.1 50 7.4 NNE 19 24 10 13 1012.2 1012.1 0.0
23/09:30am 31.5 34.3 23.6 63 5.5 NE 15 20 8 11 1012.5 1012.4 0.0
23/09:00am 30.8 34.2 24.0 67 4.7 NNE 13 15 7 8 1012.3 1012.2 0.0
23/08:30am 31.7 34.1 24.3 65 5.2 ENE 19 22 10 12 1012.6 1012.5 0.0
23/08:00am 30.1 31.9 23.5 67 4.6 E 20 26 11 14 1012.5 1012.4 0.0
23/07:30am 29.8 32.8 23.3 68 4.5 ESE 13 19 7 10 1012.1 1012.0 0.0
23/07:00am 29.3 33.3 22.8 68 4.4 S 6 9 3 5 1011.3 1011.2 0.0
23/06:30am 30.0 33.3 23.9 70 4.2 W 13 17 7 9 1010.7 1010.6 0.0
23/06:00am 29.8 33.6 24.0 71 4.0 W 11 15 6 8 1010.2 1010.1 0.0
23/05:30am 29.8 33.0 23.7 70 4.2 W 13 17 7 9 1009.6 1009.5 0.0
23/05:00am 29.6 32.6 23.3 69 4.3 W 13 17 7 9 1009.1 1009.0 0.0
23/04:30am 29.6 31.7 23.1 68 4.5 W 17 22 9 12 1008.6 1008.5 0.0
23/04:00am 29.7 32.0 23.4 69 4.3 W 17 22 9 12 1008.6 1008.5 0.0
23/03:30am 29.8 31.4 22.8 66 4.8 W 19 24 10 13 1008.7 1008.6 0.0
23/03:00am 29.8 31.6 23.3 68 4.5 W 19 24 10 13 1008.7 1008.6 0.0
23/02:30am 29.8 32.2 23.0 67 4.7 W 15 20 8 11 1008.9 1008.8 0.0
23/02:00am 29.8 32.2 23.0 67 4.7 W 15 20 8 11 1009.2 1009.1 0.0
23/01:30am 29.9 32.4 23.8 70 4.2 W 17 20 9 11 1009.3 1009.2 0.0
23/01:00am 30.0 32.7 25.1 75 3.5 WNW 20 26 11 14 1009.8 1009.7 0.0
23/12:30am 30.0 32.8 24.9 74 3.6 WNW 19 24 10 13 1010.2 1010.1 0.0
23/12:00am 30.1 33.1 24.7 73 3.8 W 17 22 9 12 1010.7 1010.6 0.0
 
Date/Time
EST
Temp
°C
App
Temp
°C
Dew
Point
Rel
Hum
%
Delta-T
°C
Wind Press
QNH
hPa
Press
MSL
hPa
Rain
since 9 am
mm
Dir
 
Spd
km/h
Gust
km/h
Spd
kts
Gust
kts
22/11:30pm 30.2 33.1 24.4 71 4.0 WNW 17 22 9 12 1010.8 1010.7 0.0
22/11:00pm 30.4 32.8 23.6 67 4.7 W 17 22 9 12 1011.1 1011.0 0.0
22/10:30pm 30.6 32.1 22.7 62 5.4 W 19 26 10 14 1011.0 1010.9 0.0
22/10:00pm 30.5 32.2 23.4 66 4.9 W 20 28 11 15 1011.0 1010.9 0.0
22/09:30pm 30.4 32.0 23.3 66 4.9 WNW 20 26 11 14 1010.9 1010.8 0.0
22/09:00pm 30.3 32.6 24.4 70 4.1 WNW 20 26 11 14 1010.9 1010.8 0.0
22/08:30pm 30.4 32.2 24.3 70 4.3 NW 22 28 12 15 1010.6 1010.5 0.0
22/08:00pm 30.4 32.8 24.3 70 4.3 NNW 19 24 10 13 1010.2 1010.1 0.0
22/07:30pm 30.4 33.2 24.3 70 4.3 NNW 17 20 9 11 1009.8 1009.7 0.0
22/07:00pm 30.4 32.6 24.3 70 4.3 NNW 20 26 11 14 1009.3 1009.2 0.0
22/06:30pm 30.5 32.9 24.2 69 4.4 N 19 24 10 13 1009.1 1009.0 0.0
22/06:00pm 30.9 33.3 24.3 68 4.6 N 19 24 10 13 1008.8 1008.7 0.0
22/05:30pm 31.0 33.3 24.1 66 4.8 N 19 24 10 13 1008.8 1008.7 0.0
22/05:00pm 31.4 33.0 23.8 64 5.3 NNW 22 26 12 14 1008.8 1008.7 0.0
22/04:30pm 32.9 34.5 23.8 58 6.3 NNW 22 30 12 16 1008.7 1008.6 0.0
22/04:00pm 33.0 33.9 23.3 56 6.7 NNW 24 30 13 16 1008.9 1008.8 0.0
22/03:30pm 33.1 34.0 23.4 56 6.7 NNW 24 35 13 19 1009.1 1009.0 0.0
22/03:00pm 33.3 34.1 22.4 52 7.5 NNW 22 30 12 16 1009.3 1009.2 0.0
22/02:30pm 33.4 34.1 22.2 52 7.7 NW 22 28 12 15 1009.7 1009.6 0.0
22/02:00pm 33.2 34.6 22.9 54 7.1 NW 20 24 11 13 1010.2 1010.1 0.0
22/01:30pm 33.3 34.8 23.0 54 7.1 NW 20 26 11 14 1010.8 1010.7 0.0
22/01:00pm 32.6 33.5 22.7 56 6.8 WNW 22 26 12 14 1011.1 1011.0 0.0
22/12:30pm 32.9 34.4 23.0 56 6.8 WNW 20 24 11 13 1011.3 1011.2 0.0
22/12:00pm 32.3 33.6 22.4 56 6.8 NW 19 24 10 13 1011.5 1011.4 0.0
22/11:30am 32.8 34.2 22.6 55 7.0 NW 19 24 10 13 1011.7 1011.6 0.0
22/11:00am 32.5 34.3 22.6 56 6.8 WNW 17 20 9 11 1012.0 1011.9 0.0
22/10:30am 32.4 33.6 22.2 55 7.0 NW 19 22 10 12 1011.9 1011.8 0.0
22/10:00am 31.9 32.4 22.0 55 6.7 NW 22 28 12 15 1011.8 1011.7 0.0
22/09:30am 32.8 33.6 21.3 50 7.8 N 19 28 10 15 1011.8 1011.7 0.0
22/09:00am 32.8 34.2 21.0 50 7.9 N 15 20 8 11 1011.7 1011.6 0.0
22/08:30am 31.7 33.3 20.0 50 7.7 N 11 17 6 9 1011.7 1011.6 0.0
22/08:00am 30.9 32.4 20.5 54 6.9 N 13 17 7 9 1011.5 1011.4 0.0
22/07:30am 30.0 32.8 20.8 57 6.1 NE 7 11 4 6 1011.7 1011.6 0.0
22/07:00am 28.7 32.1 22.0 67 4.5 NNE 7 11 4 6 1011.3 1011.2 0.0
22/06:30am 27.5 30.9 22.0 72 3.7 NNE 7 9 4 5 1011.0 1010.9 0.0
22/06:00am 27.6 30.8 21.6 70 4.0 E 7 9 4 5 1010.6 1010.5 0.0
22/05:30am 28.1 31.4 21.9 69 4.2 ENE 7 11 4 6 1010.5 1010.4 0.0
22/05:00am 28.5 30.9 22.3 69 4.2 ESE 13 20 7 11 1010.6 1010.5 0.0
22/04:30am 28.8 30.9 22.5 68 4.3 ESE 15 24 8 13 1011.0 1010.9 0.0
22/04:00am 29.2 30.8 23.2 70 4.1 SE 20 30 11 16 1011.2 1011.1 0.0
22/03:30am 29.2 31.8 22.7 68 4.4 S 13 20 7 11 1011.3 1011.2 0.0
22/03:00am 29.1 31.7 22.6 68 4.4 SSE 13 24 7 13 1010.9 1010.8 0.0
22/02:30am 29.3 31.2 23.5 71 4.0 SSE 19 33 10 18 1011.6 1011.5 0.0
22/02:00am 29.3 32.3 23.3 70 4.1 W 13 17 7 9 1009.9 1009.8 0.0
22/01:30am 29.4 31.9 23.1 69 4.3 WNW 15 20 8 11 1009.8 1009.7 0.0
22/01:00am 29.4 31.8 22.9 68 4.4 W 15 20 8 11 1010.2 1010.1 0.0
22/12:30am 29.5 31.4 22.7 67 4.6 W 17 20 9 11 1010.5 1010.4 0.0
22/12:00am 29.6 31.0 22.6 66 4.8 WNW 19 26 10 14 1010.4 1010.3 0.0
 
Date/Time
EST
Temp
°C
App
Temp
°C
Dew
Point
Rel
Hum
%
Delta-T
°C
Wind Press
QNH
hPa
Press
MSL
hPa
Rain
since 9 am
mm
Dir
 
Spd
km/h
Gust
km/h
Spd
kts
Gust
kts
21/11:30pm 29.5 30.7 22.5 66 4.8 WNW 20 26 11 14 1010.4 1010.3 0.0
21/11:00pm 29.4 30.8 22.9 68 4.4 NW 20 28 11 15 1010.2 1010.1 0.0
21/10:30pm 29.4 30.3 22.6 67 4.6 NW 22 28 12 15 1009.9 1009.8 0.0
21/10:00pm 29.5 30.5 22.2 65 4.9 NW 20 26 11 14 1010.0 1009.9 0.0
21/09:30pm 29.5 30.3 22.5 66 4.8 NW 22 28 12 15 1010.1 1010.0 0.0
21/09:00pm 29.4 30.9 23.1 69 4.3 NW 20 26 11 14 1010.1 1010.0 0.0
21/08:30pm 29.5 30.7 22.5 66 4.8 NNW 20 26 11 14 1009.9 1009.8 0.0
21/08:00pm 29.4 31.2 22.6 67 4.6 NNW 17 22 9 12 1009.8 1009.7 0.0
21/07:30pm 29.6 31.2 22.8 67 4.6 N 19 24 10 13 1009.5 1009.4 0.0
21/07:00pm 29.7 31.6 22.7 66 4.8 N 17 24 9 13 1009.2 1009.1 0.0
21/06:30pm 30.1 31.3 22.5 63 5.2 N 20 28 11 15 1008.7 1008.6 0.0
21/06:00pm 30.6 31.0 21.7 59 6.0 N 22 28 12 15 1008.5 1008.4 0.0
21/05:30pm 31.6 32.3 22.3 57 6.3 N 22 28 12 15 1008.5 1008.4 0.0
21/05:00pm 31.1 31.3 22.1 58 6.1 N 24 33 13 18 1008.6 1008.5 0.0
21/04:30pm 32.0 32.6 22.1 55 6.7 N 22 32 12 17 1008.7 1008.6 0.0
21/04:00pm 32.7 33.4 22.2 54 7.2 N 22 32 12 17 1009.1 1009.0 0.0
21/03:30pm 32.1 31.7 21.0 52 7.4 N 24 35 13 19 1009.3 1009.2 0.0
21/03:00pm 32.5 32.5 21.7 53 7.3 NNW 24 32 13 17 1009.6 1009.5 0.0
21/02:30pm 33.1 34.0 23.4 56 6.7 NNW 24 35 13 19 1010.0 1009.9 0.0
21/02:00pm 32.7 33.5 22.5 55 7.0 N 22 30 12 16 1010.4 1010.3 0.0
21/01:30pm 32.7 33.7 22.8 56 6.8 N 22 32 12 17 1010.9 1010.8 0.0
21/01:00pm 33.0 33.9 23.3 56 6.7 N 24 35 13 19 1011.2 1011.1 0.0
21/12:30pm 32.6 33.0 22.4 55 7.0 NNW 24 33 13 18 1011.7 1011.6 0.0
21/12:00pm 32.8 34.1 23.4 57 6.5 NNW 22 32 12 17 1012.0 1011.9 0.0
21/11:30am 33.2 34.2 23.5 56 6.7 NW 24 30 13 16 1012.5 1012.4 0.0
21/11:00am 32.7 33.3 22.8 56 6.8 NNW 24 33 13 18 1012.8 1012.7 0.0
21/10:30am 32.6 34.4 23.5 58 6.3 NNW 20 30 11 16 1012.9 1012.8 0.0
21/10:00am 31.0 32.7 23.4 64 5.2 NNW 20 28 11 15 1012.8 1012.7 0.0
21/09:30am 32.1 33.7 23.3 59 6.1 N 20 28 11 15 1012.8 1012.7 0.0
21/09:00am 31.5 33.5 23.9 64 5.3 N 20 28 11 15 1012.7 1012.6 0.0
21/08:30am 31.2 33.2 23.6 64 5.3 N 19 24 10 13 1012.5 1012.4 0.0

Other Formats:

Comma delimited format used in spreadsheet applications
http://www.bom.gov.au/fwo/IDQ60801/IDQ60801.94254.axf

JavaScript Object Notation format (JSON) in row-major order
http://www.bom.gov.au/fwo/IDQ60801/IDQ60801.94254.json